Time;durP1;ratioP1;P1;durP2;ratioP2;P2;SDS_P1;SDS_P2;PMS_P1;PMS_P2;Temp;Humidity;BMP_temperature;BMP_pressure;BME280_temperature;BME280_humidity;BME280_pressure;Samples;Min_cycle;Max_cycle;Signal;HPM_P1;HPM_P2
2022/10/22 00:00:27;;;;;;;20.25;2.58;;;14.90;99.90;;;;;;4968911;28;20026;-72
2022/10/22 00:02:52;;;;;;;20.05;3.00;;;15.00;99.90;;;;;;4969556;28;20057;-72
2022/10/22 00:05:18;;;;;;;23.58;2.60;;;15.00;99.90;;;;;;4969857;28;20062;-71
2022/10/22 00:07:44;;;;;;;16.08;2.53;;;15.00;99.90;;;;;;4969699;28;20058;-72
2022/10/22 00:10:09;;;;;;;21.25;2.40;;;15.10;99.90;;;;;;4969528;28;20505;-71
2022/10/22 00:12:35;;;;;;;23.08;3.38;;;15.10;99.90;;;;;;4952686;28;20492;-71
2022/10/22 00:15:02;;;;;;;20.17;2.92;;;15.00;99.90;;;;;;4968373;28;20086;-71
2022/10/22 00:17:28;;;;;;;17.50;2.58;;;15.00;99.90;;;;;;4970216;28;20114;-72
2022/10/22 00:19:53;;;;;;;25.48;3.35;;;15.10;99.90;;;;;;4969745;28;20118;-71
2022/10/22 00:22:19;;;;;;;22.70;2.65;;;15.10;99.90;;;;;;4969600;28;20081;-71
2022/10/22 00:24:45;;;;;;;24.27;3.72;;;15.10;99.90;;;;;;4969419;28;20090;-71
2022/10/22 00:27:11;;;;;;;19.83;2.67;;;15.10;99.90;;;;;;4968449;28;20035;-71
2022/10/22 00:29:37;;;;;;;18.38;3.20;;;15.10;99.90;;;;;;4966954;28;20034;-72
2022/10/22 00:32:04;;;;;;;20.98;3.25;;;15.20;99.90;;;;;;4966918;28;20041;-71
2022/10/22 00:34:29;;;;;;;20.52;2.70;;;15.10;99.90;;;;;;4968179;28;20485;-71
2022/10/22 00:36:55;;;;;;;18.23;2.63;;;15.20;99.90;;;;;;4966543;28;20089;-72
2022/10/22 00:39:23;;;;;;;22.85;2.88;;;15.20;99.90;;;;;;4965415;28;20473;-72
2022/10/22 00:41:51;;;;;;;20.27;2.90;;;15.10;99.90;;;;;;4966105;28;20117;-72
2022/10/22 00:44:54;;;;;;;23.60;3.33;;;15.10;99.90;;;;;;4968191;28;20058;-71
2022/10/22 00:47:22;;;;;;;20.33;2.58;;;15.10;99.90;;;;;;4966848;28;20090;-71
2022/10/22 00:49:49;;;;;;;17.67;2.72;;;15.10;99.90;;;;;;4965500;28;20027;-71
2022/10/22 00:52:15;;;;;;;20.75;3.70;;;15.10;99.90;;;;;;4968750;28;20031;-71
2022/10/22 00:54:41;;;;;;;17.08;1.98;;;15.10;99.90;;;;;;4966706;28;20026;-73
2022/10/22 00:57:07;;;;;;;17.73;2.63;;;15.10;99.90;;;;;;4951759;28;20511;-72
2022/10/22 00:59:34;;;;;;;23.08;3.05;;;15.10;99.90;;;;;;4967484;28;20036;-72
2022/10/22 01:02:00;;;;;;;19.27;3.08;;;15.10;99.90;;;;;;4967904;28;20030;-71
2022/10/22 01:04:25;;;;;;;19.27;2.42;;;15.10;99.90;;;;;;4968189;28;20462;-72
2022/10/22 01:06:51;;;;;;;23.23;3.10;;;15.10;99.90;;;;;;4971756;28;20405;-72
2022/10/22 01:09:25;;;;;;;23.38;3.17;;;15.10;99.90;;;;;;4973153;28;20101;-71
2022/10/22 01:11:59;;;;;;;13.02;2.15;;;15.00;99.90;;;;;;4970853;28;20039;-72
2022/10/22 01:15:01;;;;;;;18.17;2.30;;;15.00;99.90;;;;;;4960397;28;20045;-72
2022/10/22 01:17:51;;;;;;;15.85;2.72;;;15.00;99.90;;;;;;4971568;28;20038;-72
2022/10/22 01:20:23;;;;;;;16.88;2.70;;;15.00;99.90;;;;;;4970548;28;20565;-71
2022/10/22 01:23:10;;;;;;;17.67;2.67;;;15.00;99.90;;;;;;4971015;28;20081;-73
2022/10/22 01:26:02;;;;;;;14.73;2.25;;;15.00;99.90;;;;;;4968916;28;20397;-72
2022/10/22 01:28:34;;;;;;;13.10;2.78;;;15.00;99.90;;;;;;4968548;28;20035;-72
2022/10/22 01:31:02;;;;;;;15.63;2.10;;;15.10;99.90;;;;;;4969755;28;20704;-72
2022/10/22 01:33:29;;;;;;;15.13;1.80;;;15.00;99.90;;;;;;4970710;28;20030;-72
2022/10/22 01:35:56;;;;;;;18.75;2.50;;;14.90;99.90;;;;;;4970476;28;20478;-72
2022/10/22 01:38:23;;;;;;;15.93;2.60;;;15.00;99.90;;;;;;4970315;28;20514;-73
2022/10/22 01:40:50;;;;;;;14.45;2.22;;;14.90;99.90;;;;;;4970099;28;20035;-71
2022/10/22 01:43:16;;;;;;;18.90;3.00;;;14.90;99.90;;;;;;4969219;28;20172;-72
2022/10/22 01:45:48;;;;;;;15.88;2.85;;;15.00;99.90;;;;;;4970551;28;20453;-72
2022/10/22 01:48:25;;;;;;;12.70;2.05;;;15.00;99.90;;;;;;4970678;28;20046;-72
2022/10/22 01:50:54;;;;;;;14.73;2.28;;;15.00;99.90;;;;;;4956200;28;20067;-71
2022/10/22 01:53:39;;;;;;;15.30;2.53;;;15.00;99.90;;;;;;4971057;28;20031;-72
2022/10/22 01:56:46;;;;;;;12.40;1.88;;;14.90;99.90;;;;;;4968181;28;20031;-73
2022/10/22 01:59:26;;;;;;;12.27;2.05;;;14.90;99.90;;;;;;4928550;29;20146;-72
2022/10/22 02:02:01;;;;;;;15.18;1.90;;;14.90;99.90;;;;;;4930695;29;20047;-72
2022/10/22 02:04:56;;;;;;;14.13;2.60;;;14.80;99.90;;;;;;4930361;29;20032;-72
2022/10/22 02:07:28;;;;;;;19.88;2.10;;;14.80;99.90;;;;;;4927333;29;20075;-71
2022/10/22 02:09:55;;;;;;;14.82;2.28;;;14.70;99.90;;;;;;4929948;29;20518;-73
2022/10/22 02:12:23;;;;;;;17.77;2.47;;;14.70;99.90;;;;;;4929718;29;20044;-72
2022/10/22 02:14:50;;;;;;;16.88;2.42;;;14.80;99.90;;;;;;4929667;29;20536;-72
2022/10/22 02:17:20;;;;;;;15.15;2.90;;;14.70;99.90;;;;;;4929781;29;20044;-72
2022/10/22 02:20:09;;;;;;;18.35;2.67;;;14.70;99.90;;;;;;4929899;29;20550;-72
2022/10/22 02:22:35;;;;;;;20.70;2.60;;;14.70;99.90;;;;;;4928545;29;20039;-73
2022/10/22 02:25:02;;;;;;;19.65;2.30;;;14.70;99.90;;;;;;4928109;29;20518;-74
2022/10/22 02:27:54;;;;;;;19.55;3.35;;;14.70;99.90;;;;;;4928549;29;20044;-73
2022/10/22 02:30:21;;;;;;;15.25;2.58;;;14.60;99.90;;;;;;4927501;29;21307;-72
2022/10/22 02:33:22;;;;;;;17.02;2.00;;;14.70;99.90;;;;;;4940434;28;20051;-73
2022/10/22 02:35:50;;;;;;;14.27;2.40;;;14.60;99.90;;;;;;4968182;28;20035;-71
2022/10/22 02:38:16;;;;;;;15.38;2.42;;;14.60;99.90;;;;;;4968873;28;20070;-72
2022/10/22 02:40:42;;;;;;;16.85;2.00;;;14.60;99.90;;;;;;4951738;28;20038;-72
2022/10/22 02:43:08;;;;;;;15.50;2.65;;;14.60;99.90;;;;;;4967156;28;20450;-74
2022/10/22 02:45:34;;;;;;;15.88;2.30;;;14.60;99.90;;;;;;4968753;28;20031;-72
2022/10/22 02:48:00;;;;;;;13.75;1.70;;;14.60;99.90;;;;;;4969149;28;20038;-72
2022/10/22 02:50:25;;;;;;;15.93;2.08;;;14.50;99.90;;;;;;4966558;28;20089;-72
2022/10/22 02:52:51;;;;;;;12.88;1.98;;;14.50;99.90;;;;;;4969059;28;20039;-72
2022/10/22 02:55:16;;;;;;;16.80;2.40;;;14.50;99.90;;;;;;4967359;28;20811;-72
2022/10/22 02:57:42;;;;;;;15.02;1.77;;;14.50;99.90;;;;;;4952438;28;20031;-72
2022/10/22 03:00:09;;;;;;;16.38;1.95;;;14.40;99.90;;;;;;4969191;28;20110;-72
2022/10/22 03:02:35;;;;;;;13.43;2.08;;;14.40;99.90;;;;;;4969272;28;20037;-71
2022/10/22 03:05:01;;;;;;;14.00;2.17;;;14.40;99.90;;;;;;4970018;28;20050;-71
2022/10/22 03:07:26;;;;;;;16.80;2.47;;;14.40;99.90;;;;;;4967670;28;20485;-74
2022/10/22 03:09:52;;;;;;;17.73;2.20;;;14.30;99.90;;;;;;4967078;28;20046;-71
2022/10/22 03:12:17;;;;;;;11.75;1.63;;;14.30;99.90;;;;;;4966576;28;20035;-72
2022/10/22 03:14:43;;;;;;;16.88;2.50;;;14.30;99.90;;;;;;4969267;28;20039;-72
2022/10/22 03:17:09;;;;;;;20.08;2.05;;;14.30;99.90;;;;;;4961396;28;20031;-72
2022/10/22 03:19:34;;;;;;;12.98;1.90;;;14.30;99.90;;;;;;4963892;28;20034;-71
2022/10/22 03:22:04;;;;;;;14.45;2.10;;;14.20;99.90;;;;;;4961517;28;20043;-71
2022/10/22 03:24:40;;;;;;;14.93;2.13;;;14.20;99.90;;;;;;4966261;28;20031;-73
2022/10/22 03:27:06;;;;;;;14.18;2.00;;;14.20;99.90;;;;;;4970142;28;20039;-72
2022/10/22 03:29:34;;;;;;;15.27;2.00;;;14.20;99.90;;;;;;4959408;28;20042;-71
2022/10/22 03:32:00;;;;;;;11.75;2.22;;;14.10;99.90;;;;;;4966045;28;20072;-72
2022/10/22 03:34:26;;;;;;;13.05;1.73;;;14.10;99.90;;;;;;4965543;28;20090;-72
2022/10/22 03:36:53;;;;;;;16.13;2.08;;;14.10;99.90;;;;;;4964443;28;20113;-71
2022/10/22 03:39:20;;;;;;;16.48;2.20;;;14.10;99.90;;;;;;4976928;28;20050;-71
2022/10/22 03:41:47;;;;;;;14.23;2.40;;;14.00;99.90;;;;;;4970236;28;20041;-71
2022/10/22 03:44:14;;;;;;;13.48;2.10;;;14.10;99.90;;;;;;4966712;28;20043;-71
2022/10/22 03:46:39;;;;;;;14.82;1.85;;;14.00;99.90;;;;;;4964660;28;20097;-72
2022/10/22 03:49:05;;;;;;;15.65;2.42;;;14.00;99.90;;;;;;4970450;28;20061;-72
2022/10/22 03:51:31;;;;;;;14.32;1.88;;;14.00;99.90;;;;;;4969112;28;20069;-71
2022/10/22 03:53:56;;;;;;;14.15;1.90;;;14.00;99.90;;;;;;4951230;28;20053;-72
2022/10/22 03:56:22;;;;;;;15.85;3.00;;;14.00;99.90;;;;;;4966090;28;20505;-71
2022/10/22 03:58:48;;;;;;;21.25;2.75;;;14.00;99.90;;;;;;4977765;28;20038;-72
2022/10/22 04:01:14;;;;;;;15.77;2.45;;;14.00;99.90;;;;;;4975085;28;20054;-71
2022/10/22 04:03:40;;;;;;;20.83;2.55;;;14.00;99.90;;;;;;4962045;28;20027;-72
2022/10/22 04:06:11;;;;;;;18.25;2.38;;;14.00;99.90;;;;;;4974095;28;20026;-71
2022/10/22 04:08:42;;;;;;;17.27;2.30;;;14.00;99.90;;;;;;4974459;28;20122;-72
2022/10/22 04:11:08;;;;;;;17.50;2.75;;;13.90;99.90;;;;;;4954110;28;20035;-71
2022/10/22 04:13:34;;;;;;;19.08;2.38;;;13.90;99.90;;;;;;4961894;28;20098;-71
2022/10/22 04:16:10;;;;;;;19.70;2.50;;;13.80;99.90;;;;;;4967724;28;20489;-71
2022/10/22 04:18:38;;;;;;;17.20;2.42;;;13.90;99.90;;;;;;4967398;28;20034;-71
2022/10/22 04:21:04;;;;;;;18.02;2.63;;;13.80;99.90;;;;;;4969853;28;20469;-71
2022/10/22 04:23:30;;;;;;;16.55;2.58;;;13.80;99.90;;;;;;4969299;28;20042;-72
2022/10/22 04:26:04;;;;;;;17.73;2.75;;;13.80;99.90;;;;;;4969613;28;20034;-72
2022/10/22 04:28:30;;;;;;;23.38;3.33;;;13.80;99.90;;;;;;4969939;28;20031;-71
2022/10/22 04:30:55;;;;;;;20.15;2.80;;;13.80;99.90;;;;;;4969787;28;20386;-71
2022/10/22 04:33:21;;;;;;;13.32;2.30;;;13.70;99.90;;;;;;4969692;28;20129;-72
2022/10/22 04:35:47;;;;;;;24.83;2.70;;;13.70;99.90;;;;;;4966919;28;20401;-72
2022/10/22 04:38:13;;;;;;;14.98;2.17;;;13.70;99.90;;;;;;4967858;28;20109;-72
2022/10/22 04:40:38;;;;;;;20.40;2.70;;;13.70;99.90;;;;;;4966891;28;20041;-71
2022/10/22 04:43:04;;;;;;;19.15;2.65;;;13.60;99.90;;;;;;4967133;28;20031;-71
2022/10/22 04:45:32;;;;;;;21.23;3.15;;;13.70;99.90;;;;;;4967672;28;20030;-72
2022/10/22 04:47:58;;;;;;;25.55;2.70;;;13.70;99.90;;;;;;4966577;28;20062;-71
2022/10/22 04:50:24;;;;;;;20.40;3.08;;;13.70;99.90;;;;;;4967571;28;20185;-71
2022/10/22 04:52:49;;;;;;;25.25;3.17;;;13.70;99.90;;;;;;4968384;28;20038;-71
2022/10/22 04:55:15;;;;;;;25.33;3.70;;;13.70;99.90;;;;;;4967749;28;20537;-72
2022/10/22 04:57:40;;;;;;;20.75;3.15;;;13.70;99.90;;;;;;4952971;28;20034;-71
2022/10/22 05:00:07;;;;;;;16.27;2.50;;;13.80;99.90;;;;;;4968154;28;20038;-72
2022/10/22 05:02:32;;;;;;;19.05;3.05;;;13.80;99.90;;;;;;4968331;28;20037;-71
2022/10/22 05:04:58;;;;;;;22.50;3.15;;;13.80;99.90;;;;;;4967605;28;20457;-72
2022/10/22 05:07:24;;;;;;;22.58;3.25;;;13.80;99.90;;;;;;4967210;28;20037;-72
2022/10/22 05:09:49;;;;;;;22.98;3.00;;;13.90;99.90;;;;;;4968876;28;20466;-71
2022/10/22 05:12:15;;;;;;;22.00;2.72;;;13.90;99.90;;;;;;4967860;28;20141;-72
2022/10/22 05:14:41;;;;;;;21.60;3.40;;;13.90;99.90;;;;;;4968059;28;20049;-71
2022/10/22 05:17:06;;;;;;;22.25;3.22;;;14.00;99.90;;;;;;4966637;28;20780;-72
2022/10/22 05:19:32;;;;;;;20.48;2.60;;;14.00;99.90;;;;;;4966015;28;20583;-71
2022/10/22 05:22:00;;;;;;;21.67;3.08;;;14.00;99.90;;;;;;4966712;28;20031;-71
2022/10/22 05:24:27;;;;;;;23.10;2.80;;;14.00;99.90;;;;;;4967104;28;20027;-71
2022/10/22 05:26:55;;;;;;;24.20;3.00;;;14.00;99.90;;;;;;4966722;28;20061;-71
2022/10/22 05:29:21;;;;;;;17.40;2.83;;;14.00;99.90;;;;;;4972289;28;20122;-71
2022/10/22 05:31:47;;;;;;;21.02;3.33;;;13.90;99.90;;;;;;4967411;28;20039;-71
2022/10/22 05:34:13;;;;;;;22.23;3.50;;;13.90;99.90;;;;;;4966926;28;20468;-72
2022/10/22 05:36:38;;;;;;;26.98;3.00;;;13.90;99.90;;;;;;4966233;28;20031;-71
2022/10/22 05:39:05;;;;;;;24.92;3.78;;;13.80;99.90;;;;;;4951045;28;20078;-72
2022/10/22 05:41:32;;;;;;;26.90;3.40;;;13.80;99.90;;;;;;4966970;28;20027;-71
2022/10/22 05:43:59;;;;;;;24.63;2.85;;;13.80;99.90;;;;;;4967050;28;20138;-71
2022/10/22 05:46:27;;;;;;;23.55;3.15;;;13.80;99.90;;;;;;4966158;28;20050;-71
2022/10/22 05:48:58;;;;;;;23.73;3.38;;;13.70;99.90;;;;;;4967059;28;20039;-72
2022/10/22 05:51:25;;;;;;;23.65;3.55;;;13.70;99.90;;;;;;4967238;28;20114;-71
2022/10/22 05:53:55;;;;;;;22.35;3.28;;;13.70;99.90;;;;;;4974782;28;20085;-71
2022/10/22 05:56:22;;;;;;;27.02;4.07;;;13.60;99.90;;;;;;4971517;28;20042;-71
2022/10/22 05:58:48;;;;;;;22.70;3.00;;;13.60;99.90;;;;;;4971676;28;20031;-71
2022/10/22 06:01:26;;;;;;;22.00;2.95;;;13.60;99.90;;;;;;4974611;28;20076;-70
2022/10/22 06:03:59;;;;;;;19.77;2.80;;;13.60;99.90;;;;;;4980448;28;20038;-72
2022/10/22 06:06:30;;;;;;;26.45;3.42;;;13.60;99.90;;;;;;4977567;28;20042;-71
2022/10/22 06:09:00;;;;;;;23.05;3.47;;;13.50;99.90;;;;;;4971713;28;20130;-71
2022/10/22 06:11:26;;;;;;;21.48;2.90;;;13.50;99.90;;;;;;4967023;28;20520;-71
2022/10/22 06:13:52;;;;;;;22.10;2.97;;;13.50;99.90;;;;;;4967659;28;20043;-71
2022/10/22 06:16:18;;;;;;;20.98;3.28;;;13.50;99.90;;;;;;4967480;28;20108;-71
2022/10/22 06:18:43;;;;;;;22.52;3.33;;;13.40;99.90;;;;;;4967563;28;20121;-71
2022/10/22 06:21:12;;;;;;;18.35;2.65;;;13.40;99.90;;;;;;4970060;28;20031;-71
2022/10/22 06:23:39;;;;;;;20.13;2.80;;;13.40;99.90;;;;;;4956103;28;20037;-71
2022/10/22 06:26:05;;;;;;;27.60;3.17;;;13.40;99.90;;;;;;4969623;28;20560;-71
2022/10/22 06:28:32;;;;;;;19.20;2.30;;;13.40;99.90;;;;;;4969842;28;20047;-71
2022/10/22 06:30:59;;;;;;;21.73;2.60;;;13.40;99.90;;;;;;4969632;28;20041;-71
2022/10/22 06:33:26;;;;;;;22.75;3.25;;;13.40;99.90;;;;;;4970016;28;20159;-70
2022/10/22 06:35:51;;;;;;;17.35;2.70;;;13.40;99.90;;;;;;4974094;28;20031;-71
2022/10/22 06:38:17;;;;;;;18.40;2.88;;;13.50;99.90;;;;;;4964877;28;20096;-71
2022/10/22 06:40:43;;;;;;;21.35;2.63;;;13.50;99.90;;;;;;4970029;28;20049;-71
2022/10/22 06:43:13;;;;;;;17.50;2.20;;;13.60;99.90;;;;;;4956223;28;20030;-71
2022/10/22 06:45:39;;;;;;;17.85;2.22;;;13.60;99.90;;;;;;4971296;28;20113;-72
2022/10/22 06:48:06;;;;;;;15.18;2.45;;;13.60;99.90;;;;;;4955745;28;20051;-71
2022/10/22 06:50:34;;;;;;;15.27;2.25;;;13.70;99.90;;;;;;4953462;28;20034;-71
2022/10/22 06:52:59;;;;;;;15.70;2.55;;;13.80;99.90;;;;;;4956257;28;20030;-71
2022/10/22 06:55:25;;;;;;;19.25;2.72;;;13.80;99.90;;;;;;4951479;28;20034;-71
2022/10/22 06:57:51;;;;;;;20.60;2.88;;;13.90;99.90;;;;;;4969511;28;20089;-71
2022/10/22 07:00:17;;;;;;;17.98;2.75;;;14.00;99.90;;;;;;4973565;28;20039;-71
2022/10/22 07:02:42;;;;;;;18.98;2.35;;;14.00;99.90;;;;;;4961178;28;20041;-71
2022/10/22 07:05:08;;;;;;;19.15;2.40;;;14.10;99.90;;;;;;4975690;28;20038;-71
2022/10/22 07:07:34;;;;;;;20.70;3.03;;;14.20;99.90;;;;;;4966128;28;20065;-71
2022/10/22 07:09:59;;;;;;;14.77;2.28;;;14.30;99.90;;;;;;4967390;28;20609;-71
2022/10/22 07:12:25;;;;;;;20.92;2.80;;;14.30;99.90;;;;;;4969014;28;20474;-71
2022/10/22 07:14:51;;;;;;;16.38;3.00;;;14.40;99.90;;;;;;4965175;28;20137;-72
2022/10/22 07:17:16;;;;;;;13.65;2.40;;;14.50;99.90;;;;;;4970183;28;20565;-71
2022/10/22 07:19:42;;;;;;;19.60;2.38;;;14.60;99.90;;;;;;4968046;28;20066;-72
2022/10/22 07:22:08;;;;;;;11.95;2.10;;;14.60;99.90;;;;;;4969695;28;20121;-73
2022/10/22 07:24:33;;;;;;;15.40;2.25;;;14.70;99.90;;;;;;4964841;28;20042;-72
2022/10/22 07:26:59;;;;;;;12.70;2.60;;;14.80;99.90;;;;;;4965720;28;20034;-71
2022/10/22 07:29:24;;;;;;;15.48;2.85;;;14.80;99.90;;;;;;4959432;28;20047;-71
2022/10/22 07:31:50;;;;;;;17.98;2.55;;;14.80;99.90;;;;;;4973101;28;20403;-71
2022/10/22 07:34:16;;;;;;;17.60;2.88;;;14.80;99.90;;;;;;4967415;28;20381;-72
2022/10/22 07:36:41;;;;;;;16.33;2.75;;;14.80;99.90;;;;;;4968402;28;20113;-73
2022/10/22 07:39:07;;;;;;;17.88;2.50;;;14.90;99.90;;;;;;4967570;28;20820;-72
2022/10/22 07:41:33;;;;;;;16.15;1.92;;;14.90;99.90;;;;;;4963610;28;20543;-72
2022/10/22 07:43:59;;;;;;;18.23;2.50;;;15.00;99.90;;;;;;4962323;28;20086;-70
2022/10/22 07:46:26;;;;;;;18.65;2.63;;;15.00;99.90;;;;;;4963006;28;20030;-71
2022/10/22 07:48:51;;;;;;;13.18;1.90;;;15.00;99.90;;;;;;4969652;28;20074;-73
2022/10/22 07:51:17;;;;;;;16.13;2.15;;;15.00;99.90;;;;;;4966529;28;20125;-71
2022/10/22 07:53:43;;;;;;;16.88;2.53;;;15.00;99.90;;;;;;4968747;28;20035;-71
2022/10/22 07:56:08;;;;;;;14.52;2.20;;;15.00;99.90;;;;;;4968380;28;20042;-71
2022/10/22 07:58:34;;;;;;;16.67;2.35;;;15.00;99.90;;;;;;4970994;28;20385;-71
2022/10/22 08:01:01;;;;;;;13.30;2.53;;;15.00;99.90;;;;;;4973525;28;20038;-72
2022/10/22 08:03:28;;;;;;;14.30;2.70;;;15.10;99.90;;;;;;4978533;28;20034;-71
2022/10/22 08:05:53;;;;;;;16.92;2.28;;;15.10;99.90;;;;;;4973546;28;20513;-71
2022/10/22 08:08:19;;;;;;;15.00;2.25;;;15.00;99.90;;;;;;4982830;28;20065;-72
2022/10/22 08:10:47;;;;;;;16.60;2.40;;;15.00;99.90;;;;;;4976894;28;20030;-71
2022/10/22 08:13:13;;;;;;;16.15;2.30;;;15.00;99.90;;;;;;4968974;28;20031;-71
2022/10/22 08:15:39;;;;;;;12.10;1.70;;;15.00;99.90;;;;;;4970434;28;20027;-71
2022/10/22 08:18:05;;;;;;;11.20;1.75;;;14.90;99.90;;;;;;4972362;28;20392;-71
2022/10/22 08:20:30;;;;;;;12.73;1.83;;;15.00;99.90;;;;;;4976254;28;20044;-71
2022/10/22 08:22:57;;;;;;;11.48;2.13;;;15.00;99.90;;;;;;4971645;28;20030;-72
2022/10/22 08:25:22;;;;;;;10.13;2.10;;;15.00;99.90;;;;;;4975220;28;20065;-71
2022/10/22 08:27:48;;;;;;;16.30;2.17;;;15.00;99.90;;;;;;4976731;28;20109;-71
2022/10/22 08:30:14;;;;;;;12.43;1.85;;;15.10;99.90;;;;;;4973151;28;20042;-71
2022/10/22 08:32:40;;;;;;;11.63;2.15;;;15.20;99.90;;;;;;4972330;28;20415;-71
2022/10/22 08:35:06;;;;;;;16.63;2.58;;;15.30;99.90;;;;;;4976271;28;20038;-70
2022/10/22 08:37:32;;;;;;;15.45;2.63;;;15.30;99.90;;;;;;4971916;28;20774;-70
2022/10/22 08:39:57;;;;;;;12.85;2.63;;;15.30;99.90;;;;;;4973364;28;20041;-70
2022/10/22 08:42:44;;;;;;;19.25;2.42;;;15.60;99.90;;;;;;4977032;28;20038;-70
2022/10/22 08:45:34;;;;;;;14.80;2.00;;;15.80;99.90;;;;;;4966960;28;20030;-71
2022/10/22 08:48:00;;;;;;;14.20;2.33;;;16.20;99.90;;;;;;4966207;28;20038;-71
2022/10/22 08:50:39;;;;;;;15.38;2.10;;;16.30;99.90;;;;;;4962009;28;20076;-72
2022/10/22 08:53:12;;;;;;;13.60;2.05;;;16.50;99.90;;;;;;4963006;28;20121;-72
2022/10/22 08:55:38;;;;;;;14.02;1.83;;;16.60;99.90;;;;;;4959710;28;20057;-72
2022/10/22 08:58:22;;;;;;;16.33;2.53;;;16.70;99.90;;;;;;4958705;28;20062;-71
2022/10/22 09:01:32;;;;;;;15.52;2.25;;;16.90;99.90;;;;;;4969574;28;20042;-71
2022/10/22 09:04:04;;;;;;;13.85;2.63;;;17.00;99.90;;;;;;4915328;28;20073;-72
2022/10/22 09:06:32;;;;;;;21.17;2.50;;;17.10;99.90;;;;;;4969089;28;20039;-71
2022/10/22 09:08:59;;;;;;;13.98;2.33;;;17.20;99.90;;;;;;4966876;28;20485;-72
2022/10/22 09:11:34;;;;;;;12.43;1.85;;;17.10;99.90;;;;;;4968246;28;20050;-71
2022/10/22 09:14:02;;;;;;;16.63;2.25;;;16.90;99.90;;;;;;4968119;28;20741;-71
2022/10/22 09:16:56;;;;;;;12.38;1.73;;;17.00;99.90;;;;;;4973767;28;20398;-72
2022/10/22 09:19:28;;;;;;;18.25;2.30;;;17.10;99.90;;;;;;4948680;29;20046;-72
2022/10/22 09:22:31;;;;;;;19.83;2.85;;;17.20;99.90;;;;;;4977496;28;20478;-71
2022/10/22 09:25:19;;;;;;;19.13;2.40;;;17.00;99.90;;;;;;4964954;28;20133;-71
2022/10/22 09:27:46;;;;;;;15.40;2.28;;;16.90;99.90;;;;;;4976816;28;20575;-71
2022/10/22 09:30:20;;;;;;;19.38;3.33;;;16.70;99.90;;;;;;4969703;28;20046;-72
2022/10/22 09:32:59;;;;;;;13.52;2.17;;;16.60;99.90;;;;;;4970000;28;20058;-73
2022/10/22 09:35:25;;;;;;;14.13;2.42;;;16.50;99.90;;;;;;4970445;28;20035;-71
2022/10/22 09:37:54;;;;;;;15.02;2.75;;;16.50;99.90;;;;;;4955211;28;20568;-71
2022/10/22 09:40:20;;;;;;;15.10;2.70;;;16.60;99.90;;;;;;4968264;28;20034;-71
2022/10/22 09:42:46;;;;;;;16.73;2.28;;;16.80;99.90;;;;;;4970634;28;20035;-71
2022/10/22 09:45:19;;;;;;;14.68;2.15;;;17.00;99.90;;;;;;4952901;28;20045;-72
2022/10/22 09:47:45;;;;;;;18.63;3.00;;;17.30;99.90;;;;;;4969805;28;20037;-72
2022/10/22 09:50:18;;;;;;;15.73;1.88;;;17.30;99.90;;;;;;4971578;28;20070;-71
2022/10/22 09:52:43;;;;;;;18.70;2.60;;;17.30;99.90;;;;;;4970880;28;20547;-72
2022/10/22 09:55:17;;;;;;;13.90;1.88;;;17.40;99.90;;;;;;4970557;28;20031;-71
2022/10/22 09:57:43;;;;;;;14.85;2.10;;;17.50;99.90;;;;;;4972079;28;20038;-71
2022/10/22 10:00:18;;;;;;;14.10;2.60;;;17.60;99.90;;;;;;4972352;28;20493;-72
2022/10/22 10:02:43;;;;;;;13.45;1.80;;;17.60;99.90;;;;;;4968366;28;20563;-71
2022/10/22 10:05:23;;;;;;;10.98;1.85;;;17.60;99.90;;;;;;4972298;28;20129;-71
2022/10/22 10:07:49;;;;;;;13.93;2.10;;;17.60;99.90;;;;;;4968284;28;20059;-72
2022/10/22 10:10:37;;;;;;;13.32;1.98;;;17.50;99.90;;;;;;4969671;28;20146;-71
2022/10/22 10:13:22;;;;;;;13.23;1.77;;;17.60;99.90;;;;;;4971259;28;20118;-71
2022/10/22 10:16:08;;;;;;;13.75;1.73;;;17.70;99.90;;;;;;4969976;28;20035;-71
2022/10/22 10:18:46;;;;;;;14.07;2.65;;;17.70;99.90;;;;;;4959579;28;20123;-71
2022/10/22 10:21:11;;;;;;;15.40;2.15;;;17.50;99.90;;;;;;4972257;28;20039;-72
2022/10/22 10:23:43;;;;;;;11.05;1.67;;;17.30;99.90;;;;;;4969220;28;20039;-72
2022/10/22 10:26:27;;;;;;;9.80;1.75;;;17.10;99.90;;;;;;4980556;28;20440;-71
2022/10/22 10:29:11;;;;;;;13.25;2.08;;;16.90;99.90;;;;;;4982710;28;20050;-72
2022/10/22 10:32:07;;;;;;;15.43;2.00;;;17.00;99.90;;;;;;4988345;28;20045;-72
2022/10/22 10:34:36;;;;;;;14.18;1.85;;;17.10;99.90;;;;;;4989468;28;20072;-71
2022/10/22 10:37:19;;;;;;;18.58;2.38;;;17.00;99.90;;;;;;4975433;28;20043;-71
2022/10/22 10:40:14;;;;;;;12.75;1.98;;;16.90;99.90;;;;;;4970599;28;20065;-71
2022/10/22 10:42:45;;;;;;;13.73;1.67;;;16.90;99.90;;;;;;4927810;29;20050;-71
2022/10/22 10:45:42;;;;;;;14.38;2.08;;;16.80;99.90;;;;;;4930863;29;20102;-71
2022/10/22 10:48:29;;;;;;;9.20;1.73;;;16.70;99.90;;;;;;4930489;29;20125;-71
2022/10/22 10:51:03;;;;;;;14.25;2.00;;;17.00;99.90;;;;;;4930300;29;20047;-71
2022/10/22 10:54:15;;;;;;;10.45;1.63;;;17.70;99.90;;;;;;4923358;29;20051;-71
2022/10/22 10:56:43;;;;;;;11.80;2.03;;;18.00;99.90;;;;;;4902062;29;20618;-71
2022/10/22 10:59:17;;;;;;;13.10;2.00;;;18.00;99.90;;;;;;4911532;29;20054;-71
2022/10/22 11:02:12;;;;;;;13.85;2.17;;;18.20;99.90;;;;;;4916118;29;20040;-71
2022/10/22 11:04:50;;;;;;;10.30;1.73;;;18.30;99.90;;;;;;4907102;29;20040;-72
2022/10/22 11:07:30;;;;;;;12.95;2.25;;;18.40;99.90;;;;;;4901501;29;20040;-72
2022/10/22 11:10:08;;;;;;;11.15;2.17;;;18.20;99.90;;;;;;4906058;29;20043;-72
2022/10/22 11:12:39;;;;;;;10.10;2.10;;;18.20;99.90;;;;;;4905057;29;20131;-71
2022/10/22 11:15:28;;;;;;;12.90;1.80;;;18.40;99.90;;;;;;4907958;29;20063;-71
2022/10/22 11:17:58;;;;;;;13.18;2.38;;;18.20;99.90;;;;;;4904434;29;20134;-73
2022/10/22 11:20:27;;;;;;;14.27;2.25;;;17.80;99.90;;;;;;4924480;29;20055;-71
2022/10/22 11:23:01;;;;;;;13.15;2.05;;;17.60;99.90;;;;;;4927577;29;20043;-71
2022/10/22 11:25:30;;;;;;;11.98;1.88;;;17.60;99.90;;;;;;4927287;29;20051;-71
2022/10/22 11:27:58;;;;;;;;;;;17.60;99.90;;;;;;4928588;29;20035;-71
2022/10/22 11:30:30;;;;;;;13.20;1.88;;;17.70;99.90;;;;;;4931017;29;20460;-72
2022/10/22 11:32:59;;;;;;;10.65;2.00;;;18.00;99.90;;;;;;4950635;28;20045;-71
2022/10/22 11:35:36;;;;;;;9.73;1.65;;;18.20;99.90;;;;;;4970103;28;20038;-72
2022/10/22 11:38:04;;;;;;;18.50;2.83;;;18.40;99.90;;;;;;4968653;28;20421;-71
2022/10/22 11:40:54;;;;;;;14.73;2.15;;;18.50;99.90;;;;;;4969900;28;20118;-71
2022/10/22 11:43:31;;;;;;;10.50;1.65;;;18.50;99.90;;;;;;4966420;28;20038;-73
2022/10/22 11:46:22;;;;;;;15.07;2.35;;;18.50;99.90;;;;;;4970179;28;20485;-71
2022/10/22 11:49:17;;;;;;;14.45;1.67;;;18.60;99.90;;;;;;4968960;28;20133;-71
2022/10/22 11:51:43;;;;;;;12.23;1.77;;;18.70;99.90;;;;;;4970552;28;20031;-71
2022/10/22 11:54:30;;;;;;;12.73;1.80;;;18.80;99.90;;;;;;4971890;28;20038;-70
2022/10/22 11:57:14;;;;;;;14.18;2.25;;;18.80;99.90;;;;;;4970235;28;20134;-71
2022/10/22 11:59:58;;;;;;;11.93;1.80;;;18.70;99.90;;;;;;4965748;28;20061;-71
2022/10/22 12:02:26;;;;;;;15.43;2.15;;;18.80;99.90;;;;;;4953119;28;20507;-72
2022/10/22 12:04:54;;;;;;;11.43;1.80;;;18.60;99.90;;;;;;4968139;28;20038;-71
2022/10/22 12:07:32;;;;;;;13.68;2.13;;;18.30;99.90;;;;;;4968284;28;20042;-71
2022/10/22 12:09:58;;;;;;;9.43;1.65;;;18.10;99.90;;;;;;4965630;28;20121;-71
2022/10/22 12:12:26;;;;;;;15.00;2.13;;;17.90;99.90;;;;;;4964200;28;20126;-71
2022/10/22 12:14:56;;;;;;;15.52;2.33;;;17.80;99.90;;;;;;4968163;28;20030;-72
2022/10/22 12:17:22;;;;;;;11.60;1.75;;;17.70;99.90;;;;;;4966279;28;20117;-71
2022/10/22 12:20:09;;;;;;;12.07;1.95;;;17.50;99.90;;;;;;4967481;28;20537;-72
2022/10/22 12:22:36;;;;;;;10.60;1.50;;;17.50;99.90;;;;;;4967491;28;20031;-71
2022/10/22 12:25:14;;;;;;;14.57;2.17;;;17.40;99.90;;;;;;4969310;28;20245;-72
2022/10/22 12:27:40;;;;;;;11.82;1.58;;;17.40;99.90;;;;;;4969217;28;20489;-72
2022/10/22 12:30:18;;;;;;;16.90;2.30;;;17.40;99.90;;;;;;4968880;28;20050;-72
2022/10/22 12:32:44;;;;;;;14.45;2.75;;;17.40;99.90;;;;;;4968792;28;20042;-72
2022/10/22 12:35:25;;;;;;;14.48;1.90;;;17.50;99.90;;;;;;4966062;28;20689;-71
2022/10/22 12:37:53;;;;;;;17.08;2.00;;;17.50;99.90;;;;;;4969551;28;20134;-72
2022/10/22 12:40:20;;;;;;;13.55;2.40;;;17.50;99.90;;;;;;4969837;28;20042;-71
2022/10/22 12:42:51;;;;;;;14.52;2.03;;;17.60;99.90;;;;;;4969855;28;20417;-72
2022/10/22 12:45:18;;;;;;;14.30;2.50;;;17.50;99.90;;;;;;4969964;28;20101;-71
2022/10/22 12:47:55;;;;;;;13.88;2.13;;;17.60;99.90;;;;;;4969044;28;20078;-71
2022/10/22 12:50:28;;;;;;;16.50;2.28;;;17.60;99.90;;;;;;4967684;28;20042;-72
2022/10/22 12:52:54;;;;;;;15.00;1.77;;;17.70;99.90;;;;;;4945792;28;20039;-71
2022/10/22 12:55:24;;;;;;;15.30;2.30;;;17.70;99.90;;;;;;4964590;28;20035;-71